CheckWX is a tool to help pilots better visualize weather data.  It is not intended as a substitute for an official pre-flight weather briefing.

06:47:45 UTC

KGUS METAR
Grissom ARB Airport
Peru, Indiana, USA
Current

52 mins ago

KGUS 230556Z AUTO 19012KT 10SM SCT080 18/10 A2991 RMK AO2 SLP128 60000 T01780104 10208 20171 58021 $
Observed
Apr-23 @ 05:56 UTC
Wind
  • 190° at 12 KTS
Visibility
10 SM
Flight Rules
VFR
Cloud Levels
  • Scattered at 8,000' AGL
Temperature
18°C / 64°F
Dewpoint
10°C / 50°F
Humidity
60%
Altimeter
29.91" Hg
Pressure
1012.92 hPa
Previous

2 hours ago

KGUS 230456Z AUTO 19008KT 10SM BKN080 OVC090 18/11 A2996 RMK AO2 SLP145 T01790110 402470078 $
Observed
Apr-23 @ 04:56 UTC
Wind
  • 190° at 8 KTS
Visibility
10 SM
Flight Rules
VFR
Cloud Levels
  • Broken at 8,000' AGL
  • Overcast at 9,000' AGL
Temperature
18°C / 64°F
Dewpoint
11°C / 52°F
Humidity
64%
Altimeter
29.96" Hg
Pressure
1014.52 hPa
Previous

3 hours ago

KGUS 230356Z AUTO 17008KT 10SM FEW075 BKN100 17/11 A2996 RMK AO2 SLP145 T01710109 $
Observed
Apr-23 @ 03:56 UTC
Wind
  • 170° at 8 KTS
Visibility
10 SM
Flight Rules
VFR
Cloud Levels
  • Few at 7,500' AGL
  • Broken at 10,000' AGL
Temperature
17°C / 63°F
Dewpoint
11°C / 52°F
Humidity
68%
Altimeter
29.96" Hg
Pressure
1014.52 hPa